St Charlotte — FWBM — position and weather

sailwx.info

Track history (hours):
 
Tides and Currents Weather Stations Pressure Air Temp Water Temp Dewpoint Dewpoint Depression Visibility Wind Speed Wind Dir Waves Ship Positions

St Charlotte

Last reported at 2014-Dec-19 11:21 UTC. Time now 2014-Dec-20 16:30 UTC.
Position N 37°04' W 009°49'.

Length 129 m; draft 8.2 m.

Type: Tanker. MMSI: 228331700.

Date/timePositionNaut miles runAvg speedWind from/ knotsBaromVisibWave heightAir tempDewpointWater temp
2014-Dec-19 11:21N 37°04' W 009°49'1311.6
2014-Dec-19 10:14N 37°17' W 009°52'1012.1
2014-Dec-19 09:27N 37°26' W 009°55'1112.4
2014-Dec-19 08:33N 37°37' W 009°58'1312.6
2014-Dec-19 07:33N 37°50' W 010°01'1212.3
2014-Dec-19 06:33N 38°02' W 010°04'1412.5
2014-Dec-19 05:28N 38°15' W 010°07'1112.5
2014-Dec-19 04:33N 38°26' W 010°09'1212.2
2014-Dec-19 03:33N 38°38' W 010°12'  
2014-Dec-16 00:07N 49°33' W 000°16'712.9
2014-Dec-15 23:33N 49°31' W 000°05'1010.4
2014-Dec-15 22:33N 49°28' E 000°10'0 0.5
2014-Dec-15 21:32N 49°29' E 000°11'0 0.2
2014-Dec-15 20:33N 49°29' E 000°11'0 0.0
2014-Dec-15 19:33N 49°29' E 000°11'0 0.0
2014-Dec-15 18:33N 49°29' E 000°11'0 0.0
2014-Dec-15 17:33N 49°29' E 000°11'0 0.0
2014-Dec-15 16:33N 49°29' E 000°11'0 0.0
2014-Dec-15 15:33N 49°29' E 000°11'0 0.0
2014-Dec-15 14:33N 49°29' E 000°11'0 0.0
2014-Dec-15 13:30N 49°29' E 000°11'0 0.0
2014-Dec-15 12:33N 49°29' E 000°11'0 0.0
2014-Dec-15 11:33N 49°29' E 000°11'0 0.0
2014-Dec-15 10:33N 49°29' E 000°11'0 0.0
2014-Dec-15 09:33N 49°29' E 000°11'0 0.0
2014-Dec-15 08:30N 49°29' E 000°11'0 0.0
2014-Dec-15 07:33N 49°29' E 000°11'0 0.0
2014-Dec-15 06:33N 49°29' E 000°11'0 0.0
2014-Dec-15 05:33N 49°29' E 000°11'0 0.0
2014-Dec-15 04:30N 49°29' E 000°11'0 0.0
2014-Dec-15 03:32N 49°29' E 000°11'0 0.0
2014-Dec-15 02:33N 49°29' E 000°11'0 0.2
2014-Dec-15 01:33N 49°29' E 000°11'3 2.7
2014-Dec-15 00:33N 49°29' E 000°07'1212.0
2014-Dec-14 23:33N 49°32' W 000°11'9 8.9
2014-Dec-14 22:33N 49°36' W 000°23'10 9.5
2014-Dec-14 21:30N 49°40' W 000°38'  
2014-Dec-12 05:12N 39°16' W 009°50'913.8
2014-Dec-12 04:31N 39°07' W 009°51'1413.6
2014-Dec-12 03:30N 38°53' W 009°50'1313.5
2014-Dec-12 02:33N 38°40' W 009°49'1111.5
2014-Dec-12 01:33N 38°37' W 009°35'1313.1
2014-Dec-12 00:33N 38°40' W 009°19'6 5.9
2014-Dec-11 23:33N 38°41' W 009°11'0 0.0
2014-Dec-11 22:33N 38°41' W 009°11'0 0.0
2014-Dec-11 21:33N 38°41' W 009°11'0 0.0
2014-Dec-11 20:33N 38°41' W 009°11'0 0.0
2014-Dec-11 19:33N 38°41' W 009°11'0 0.1
2014-Dec-11 18:33N 38°41' W 009°11'0 0.0
2014-Dec-11 17:33N 38°41' W 009°11'8 8.2
2014-Dec-11 16:34N 38°38' W 009°21'1514.5
2014-Dec-11 15:33N 38°24' W 009°27'1413.9
2014-Dec-11 14:33N 38°11' W 009°30'1413.9
2014-Dec-11 13:33N 37°57' W 009°34'1414.0
2014-Dec-11 12:33N 37°44' W 009°39'1514.1
2014-Dec-11 11:30N 37°29' W 009°43'1414.2
2014-Dec-11 10:33N 37°16' W 009°47'1414.0
2014-Dec-11 09:34N 37°02' W 009°50'  
Track history (hours):
 
Tides and Currents Weather Stations Pressure Air Temp Water Temp Dewpoint Dewpoint Depression Visibility Wind Speed Wind Dir Waves Ship Positions

St Charlotte

Last reported at 2014-Dec-19 11:21 UTC. Time now 2014-Dec-20 16:30 UTC.
Position N 37°04' W 009°49'.

Length 129 m; draft 8.2 m.

Type: Tanker. MMSI: 228331700.

Date/timePositionNaut miles runAvg speedWind from/ knotsBaromVisibWave heightAir tempDewpointWater temp
2014-Dec-19 11:21N 37°04' W 009°49'1311.6
2014-Dec-19 10:14N 37°17' W 009°52'1012.1
2014-Dec-19 09:27N 37°26' W 009°55'1112.4
2014-Dec-19 08:33N 37°37' W 009°58'1312.6
2014-Dec-19 07:33N 37°50' W 010°01'1212.3
2014-Dec-19 06:33N 38°02' W 010°04'1412.5
2014-Dec-19 05:28N 38°15' W 010°07'1112.5
2014-Dec-19 04:33N 38°26' W 010°09'1212.2
2014-Dec-19 03:33N 38°38' W 010°12'  
2014-Dec-16 00:07N 49°33' W 000°16'712.9
2014-Dec-15 23:33N 49°31' W 000°05'1010.4
2014-Dec-15 22:33N 49°28' E 000°10'0 0.5
2014-Dec-15 21:32N 49°29' E 000°11'0 0.2
2014-Dec-15 20:33N 49°29' E 000°11'0 0.0
2014-Dec-15 19:33N 49°29' E 000°11'0 0.0
2014-Dec-15 18:33N 49°29' E 000°11'0 0.0
2014-Dec-15 17:33N 49°29' E 000°11'0 0.0
2014-Dec-15 16:33N 49°29' E 000°11'0 0.0
2014-Dec-15 15:33N 49°29' E 000°11'0 0.0
2014-Dec-15 14:33N 49°29' E 000°11'0 0.0
2014-Dec-15 13:30N 49°29' E 000°11'0 0.0
2014-Dec-15 12:33N 49°29' E 000°11'0 0.0
2014-Dec-15 11:33N 49°29' E 000°11'0 0.0
2014-Dec-15 10:33N 49°29' E 000°11'0 0.0
2014-Dec-15 09:33N 49°29' E 000°11'0 0.0
2014-Dec-15 08:30N 49°29' E 000°11'0 0.0
2014-Dec-15 07:33N 49°29' E 000°11'0 0.0
2014-Dec-15 06:33N 49°29' E 000°11'0 0.0
2014-Dec-15 05:33N 49°29' E 000°11'0 0.0
2014-Dec-15 04:30N 49°29' E 000°11'0 0.0
2014-Dec-15 03:32N 49°29' E 000°11'0 0.0
2014-Dec-15 02:33N 49°29' E 000°11'0 0.2
2014-Dec-15 01:33N 49°29' E 000°11'3 2.7
2014-Dec-15 00:33N 49°29' E 000°07'1212.0
2014-Dec-14 23:33N 49°32' W 000°11'9 8.9
2014-Dec-14 22:33N 49°36' W 000°23'10 9.5
2014-Dec-14 21:30N 49°40' W 000°38'  
2014-Dec-12 05:12N 39°16' W 009°50'913.8
2014-Dec-12 04:31N 39°07' W 009°51'1413.6
2014-Dec-12 03:30N 38°53' W 009°50'1313.5
2014-Dec-12 02:33N 38°40' W 009°49'1111.5
2014-Dec-12 01:33N 38°37' W 009°35'1313.1
2014-Dec-12 00:33N 38°40' W 009°19'6 5.9
2014-Dec-11 23:33N 38°41' W 009°11'0 0.0
2014-Dec-11 22:33N 38°41' W 009°11'0 0.0
2014-Dec-11 21:33N 38°41' W 009°11'0 0.0
2014-Dec-11 20:33N 38°41' W 009°11'0 0.0
2014-Dec-11 19:33N 38°41' W 009°11'0 0.1
2014-Dec-11 18:33N 38°41' W 009°11'0 0.0
2014-Dec-11 17:33N 38°41' W 009°11'8 8.2
2014-Dec-11 16:34N 38°38' W 009°21'1514.5
2014-Dec-11 15:33N 38°24' W 009°27'1413.9
2014-Dec-11 14:33N 38°11' W 009°30'1413.9
2014-Dec-11 13:33N 37°57' W 009°34'1414.0
2014-Dec-11 12:33N 37°44' W 009°39'1514.1
2014-Dec-11 11:30N 37°29' W 009°43'1414.2
2014-Dec-11 10:33N 37°16' W 009°47'1414.0
2014-Dec-11 09:34N 37°02' W 009°50'  

Dump ship's entire track history